createdAt,value
2022-12-24T00:01:46.085Z,9.40
2022-12-24T00:04:12.879Z,9.40
2022-12-24T00:06:39.990Z,9.36
2022-12-24T00:09:06.778Z,9.39
2022-12-24T00:11:33.869Z,9.40
2022-12-24T00:14:00.786Z,9.34
2022-12-24T00:16:28.183Z,9.38
2022-12-24T00:18:55.036Z,9.33
2022-12-24T00:21:22.151Z,9.36
2022-12-24T00:23:48.941Z,9.38
2022-12-24T00:26:15.999Z,9.27
2022-12-24T00:28:42.807Z,9.31
2022-12-24T00:31:14.717Z,9.29
2022-12-24T00:33:41.685Z,9.31
2022-12-24T00:36:09.650Z,9.31
2022-12-24T00:38:36.413Z,9.33
2022-12-24T00:41:04.296Z,9.32
2022-12-24T00:43:31.146Z,9.28
2022-12-24T00:46:00.205Z,9.39
2022-12-24T00:48:27.044Z,9.36
2022-12-24T00:50:54.258Z,9.31
2022-12-24T00:53:21.200Z,9.37
2022-12-24T00:55:48.298Z,9.33
2022-12-24T00:58:15.121Z,9.28
2022-12-24T01:00:42.194Z,9.33
2022-12-24T01:03:09.087Z,9.36
2022-12-24T01:05:36.427Z,9.39
2022-12-24T01:08:03.229Z,9.40
2022-12-24T01:10:30.356Z,9.40
2022-12-24T01:12:57.116Z,9.43
2022-12-24T01:15:24.186Z,9.41
2022-12-24T01:17:50.939Z,9.43
2022-12-24T01:20:18.104Z,9.45
2022-12-24T01:22:45.047Z,9.47
2022-12-24T01:25:12.211Z,9.45
2022-12-24T01:27:38.946Z,9.47
2022-12-24T01:30:07.499Z,9.46
2022-12-24T01:32:34.289Z,9.46
2022-12-24T01:35:01.297Z,9.48
2022-12-24T01:37:28.234Z,9.49
2022-12-24T01:40:15.251Z,9.51
2022-12-24T01:43:02.762Z,9.54
2022-12-24T01:45:42.227Z,9.52
2022-12-24T01:48:27.810Z,9.51
2022-12-24T01:50:58.047Z,9.47
2022-12-24T01:53:24.832Z,9.48
2022-12-24T01:55:51.957Z,9.47
2022-12-24T01:58:18.731Z,9.47
2022-12-24T02:00:45.787Z,9.49
2022-12-24T02:03:12.691Z,9.48
2022-12-24T02:05:47.670Z,9.47
2022-12-24T02:08:14.700Z,9.50
2022-12-24T02:10:41.900Z,9.51
2022-12-24T02:13:08.671Z,9.49
2022-12-24T02:15:56.087Z,9.51
2022-12-24T02:18:26.897Z,9.53
2022-12-24T02:21:03.162Z,9.53
2022-12-24T02:23:58.724Z,9.51
2022-12-24T02:26:34.958Z,9.51
2022-12-24T02:29:18.355Z,9.53
2022-12-24T02:31:51.927Z,9.54
2022-12-24T02:34:25.023Z,9.53
2022-12-24T02:37:31.887Z,9.56
2022-12-24T02:40:12.122Z,9.54
2022-12-24T02:42:49.102Z,9.56
2022-12-24T02:45:17.968Z,9.56
2022-12-24T02:47:45.190Z,9.54
2022-12-24T02:50:14.335Z,9.51
2022-12-24T02:52:43.571Z,9.49
2022-12-24T02:55:17.836Z,9.51
2022-12-24T02:58:10.301Z,9.50
2022-12-24T03:00:58.515Z,9.47
2022-12-24T03:03:40.676Z,9.42
2022-12-24T03:06:45.184Z,9.40
2022-12-24T03:09:26.164Z,9.40
2022-12-24T03:12:04.267Z,9.39
2022-12-24T03:14:31.504Z,9.36
2022-12-24T03:16:58.237Z,9.35
2022-12-24T03:19:25.675Z,9.28
2022-12-24T03:21:52.437Z,9.28
2022-12-24T03:24:19.565Z,9.29
2022-12-24T03:26:46.921Z,9.28
2022-12-24T03:29:14.021Z,9.25
2022-12-24T03:31:44.998Z,9.26
2022-12-24T03:34:12.476Z,9.29
2022-12-24T03:36:39.344Z,9.27
2022-12-24T03:39:06.755Z,9.30
2022-12-24T03:41:33.632Z,9.29
2022-12-24T03:44:00.733Z,9.27
2022-12-24T03:46:27.804Z,9.26
2022-12-24T03:48:54.971Z,9.27
2022-12-24T03:51:22.973Z,9.30
2022-12-24T03:53:51.745Z,9.31
2022-12-24T03:56:18.508Z,9.27
2022-12-24T03:58:45.566Z,9.25
2022-12-24T04:01:12.460Z,9.22
2022-12-24T04:03:39.662Z,9.26
2022-12-24T04:06:08.521Z,9.25
2022-12-24T04:08:35.992Z,9.27
2022-12-24T04:11:09.542Z,9.31
2022-12-24T04:13:37.078Z,9.31
2022-12-24T04:16:06.049Z,9.33
2022-12-24T04:18:33.170Z,9.34
2022-12-24T04:20:59.921Z,9.35
2022-12-24T04:23:26.961Z,9.36
2022-12-24T04:25:53.699Z,9.35
2022-12-24T04:28:20.833Z,9.35
2022-12-24T04:30:47.573Z,9.35
2022-12-24T04:33:14.634Z,9.37
2022-12-24T04:35:41.577Z,9.38
2022-12-24T04:38:09.596Z,9.37
2022-12-24T04:40:36.381Z,9.38
2022-12-24T04:43:03.481Z,9.38
2022-12-24T04:45:30.267Z,9.40
2022-12-24T04:47:57.364Z,9.38
2022-12-24T04:50:24.135Z,9.38
2022-12-24T04:52:51.168Z,9.38
2022-12-24T04:55:17.961Z,9.39
2022-12-24T04:57:49.733Z,9.39
2022-12-24T05:00:19.764Z,9.38
2022-12-24T05:02:46.898Z,9.37
2022-12-24T05:05:13.738Z,9.36
2022-12-24T05:07:40.801Z,9.39
2022-12-24T05:10:08.252Z,9.39
2022-12-24T05:12:35.288Z,9.42
2022-12-24T05:15:02.008Z,9.44
2022-12-24T05:17:29.070Z,9.44
2022-12-24T05:19:55.809Z,9.44
2022-12-24T05:22:41.573Z,9.44
2022-12-24T05:25:28.429Z,9.44
2022-12-24T05:27:55.766Z,9.43
2022-12-24T05:30:22.490Z,9.40
2022-12-24T05:32:49.525Z,9.42
2022-12-24T05:35:16.279Z,9.44
2022-12-24T05:37:43.385Z,9.44
2022-12-24T05:40:10.414Z,9.45
2022-12-24T05:42:37.516Z,9.46
2022-12-24T05:45:04.544Z,9.49
2022-12-24T05:47:31.535Z,9.51
2022-12-24T05:49:58.298Z,9.48
2022-12-24T05:52:25.425Z,9.46
2022-12-24T05:54:52.154Z,9.47
2022-12-24T05:57:19.189Z,9.47
2022-12-24T05:59:45.992Z,9.49
2022-12-24T06:02:13.120Z,9.51
2022-12-24T06:04:40.114Z,9.59
2022-12-24T06:07:07.194Z,9.56
2022-12-24T06:09:34.012Z,9.59
2022-12-24T06:12:01.052Z,9.55
2022-12-24T06:14:27.766Z,9.58
2022-12-24T06:16:54.828Z,9.61
2022-12-24T06:19:21.656Z,9.56
2022-12-24T06:21:48.712Z,9.56
2022-12-24T06:24:15.978Z,9.61
2022-12-24T06:26:43.003Z,9.61
2022-12-24T06:29:10.306Z,9.59
2022-12-24T06:31:37.449Z,9.62
2022-12-24T06:34:04.177Z,9.61
2022-12-24T06:36:31.292Z,9.63
2022-12-24T06:38:58.047Z,9.64
2022-12-24T06:41:25.133Z,9.64
2022-12-24T06:43:52.453Z,9.64
2022-12-24T06:46:19.992Z,9.65
2022-12-24T06:48:46.800Z,9.62
2022-12-24T06:51:14.316Z,9.66
2022-12-24T06:53:41.290Z,9.65
2022-12-24T06:56:09.896Z,9.65
2022-12-24T06:58:36.725Z,9.65
2022-12-24T07:01:08.079Z,9.66
2022-12-24T07:03:34.906Z,9.64
2022-12-24T07:06:02.128Z,9.64
2022-12-24T07:08:28.935Z,9.65
2022-12-24T07:10:56.033Z,9.66
2022-12-24T07:13:22.799Z,9.62
2022-12-24T07:16:00.097Z,9.67
2022-12-24T07:18:26.944Z,9.68
2022-12-24T07:20:54.079Z,9.68
2022-12-24T07:23:21.019Z,9.69
2022-12-24T07:25:48.110Z,9.72
2022-12-24T07:28:14.894Z,9.72
2022-12-24T07:30:41.924Z,9.72
2022-12-24T07:33:08.791Z,9.73
2022-12-24T07:35:35.801Z,9.73
2022-12-24T07:38:02.753Z,9.69
2022-12-24T07:40:29.822Z,9.73
2022-12-24T07:42:56.631Z,9.70
2022-12-24T07:45:23.779Z,9.73
2022-12-24T07:47:50.538Z,9.77
2022-12-24T07:50:17.712Z,9.78
2022-12-24T07:52:44.454Z,9.79
2022-12-24T07:55:11.570Z,9.77
2022-12-24T07:57:38.326Z,9.77
2022-12-24T08:00:06.071Z,9.82
2022-12-24T08:02:32.959Z,9.82
2022-12-24T08:05:00.180Z,9.83
2022-12-24T08:07:26.898Z,9.84
2022-12-24T08:09:53.927Z,9.87
2022-12-24T08:12:20.749Z,9.85
2022-12-24T08:14:47.791Z,9.86
2022-12-24T08:17:14.498Z,9.88
2022-12-24T08:19:41.515Z,9.86
2022-12-24T08:22:08.326Z,9.88
2022-12-24T08:24:35.444Z,9.88
2022-12-24T08:27:02.185Z,9.91
2022-12-24T08:29:29.237Z,9.90
2022-12-24T08:31:56.044Z,9.94
2022-12-24T08:34:23.561Z,9.96
2022-12-24T08:36:50.331Z,9.97
2022-12-24T08:39:17.463Z,10.03
2022-12-24T08:41:44.184Z,10.06
2022-12-24T08:44:11.226Z,10.15
2022-12-24T08:46:38.029Z,10.12
2022-12-24T08:49:05.190Z,10.17
2022-12-24T08:51:32.312Z,10.16
2022-12-24T08:53:59.346Z,10.19
2022-12-24T08:56:26.168Z,10.22
2022-12-24T08:58:53.241Z,10.24
2022-12-24T09:01:20.455Z,10.24
2022-12-24T09:03:47.649Z,10.26
2022-12-24T09:06:14.579Z,10.28
2022-12-24T09:08:41.694Z,10.29
2022-12-24T09:11:13.415Z,10.31
2022-12-24T09:13:40.657Z,10.32
2022-12-24T09:16:08.005Z,10.35
2022-12-24T09:18:35.116Z,10.35
2022-12-24T09:21:02.611Z,10.40
2022-12-24T09:23:29.811Z,10.40
2022-12-24T09:25:56.608Z,10.45
2022-12-24T09:28:23.795Z,10.46
2022-12-24T09:31:01.056Z,10.50
2022-12-24T09:33:29.049Z,10.51
2022-12-24T09:35:55.810Z,10.57
2022-12-24T09:38:23.067Z,10.55
2022-12-24T09:40:50.008Z,10.54
2022-12-24T09:43:24.676Z,10.58
2022-12-24T09:46:14.417Z,10.61
2022-12-24T09:48:44.101Z,10.67
2022-12-24T09:51:26.853Z,10.70
2022-12-24T09:53:57.347Z,10.68
2022-12-24T09:56:28.371Z,10.67
2022-12-24T09:59:03.691Z,10.68
2022-12-24T10:01:31.609Z,10.75
2022-12-24T10:04:00.375Z,10.72
2022-12-24T10:06:42.362Z,10.76
2022-12-24T10:09:15.755Z,10.79
2022-12-24T10:11:54.360Z,10.79
2022-12-24T10:14:43.129Z,10.76
2022-12-24T10:17:16.085Z,10.83
2022-12-24T10:20:09.678Z,10.86
2022-12-24T10:23:02.954Z,10.85
2022-12-24T10:25:56.286Z,10.87
2022-12-24T10:28:28.525Z,10.94
2022-12-24T10:30:58.635Z,10.94
2022-12-24T10:33:38.400Z,10.99
2022-12-24T10:36:11.952Z,10.98
2022-12-24T10:38:39.170Z,11.03
2022-12-24T10:41:06.289Z,11.03
2022-12-24T10:43:33.058Z,11.04
2022-12-24T10:46:02.159Z,11.06
2022-12-24T10:48:30.926Z,11.06
2022-12-24T10:51:06.308Z,11.08
2022-12-24T10:53:49.055Z,11.10
2022-12-24T10:56:17.361Z,11.12
2022-12-24T10:58:45.577Z,11.16
2022-12-24T11:01:12.715Z,11.18
2022-12-24T11:03:40.123Z,11.18
2022-12-24T11:06:22.796Z,11.17
2022-12-24T11:08:49.531Z,11.19
2022-12-24T11:11:20.759Z,11.18
2022-12-24T11:13:50.674Z,11.19
2022-12-24T11:16:24.075Z,11.25
2022-12-24T11:18:54.701Z,11.26
2022-12-24T11:21:26.813Z,11.32
2022-12-24T11:23:58.358Z,11.36
2022-12-24T11:26:29.624Z,11.38
2022-12-24T11:29:08.507Z,11.41
2022-12-24T11:31:38.963Z,11.43
2022-12-24T11:34:25.732Z,11.40
2022-12-24T11:36:53.508Z,11.41
2022-12-24T11:39:26.404Z,11.43
2022-12-24T11:41:53.687Z,11.48
2022-12-24T11:44:25.584Z,11.53
2022-12-24T11:46:56.850Z,11.54
2022-12-24T11:49:31.389Z,11.59
2022-12-24T11:52:11.470Z,11.58
2022-12-24T11:54:44.693Z,11.64
2022-12-24T11:57:11.911Z,11.65
2022-12-24T11:59:41.917Z,11.63
2022-12-24T12:02:30.003Z,11.66
2022-12-24T12:04:59.833Z,11.68
2022-12-24T12:07:29.554Z,11.74
2022-12-24T12:09:59.761Z,11.75
2022-12-24T12:12:28.360Z,11.76
2022-12-24T12:15:24.608Z,11.76
2022-12-24T12:18:12.197Z,11.72
2022-12-24T12:20:45.285Z,11.74
2022-12-24T12:23:31.396Z,11.70
2022-12-24T12:25:59.196Z,11.75
2022-12-24T12:28:32.411Z,11.73
2022-12-24T12:31:06.028Z,11.73
2022-12-24T12:33:41.487Z,11.72
2022-12-24T12:36:08.803Z,11.69
2022-12-24T12:38:36.000Z,11.69
2022-12-24T12:41:15.009Z,11.74
2022-12-24T12:44:01.009Z,11.74
2022-12-24T12:46:33.640Z,11.76
2022-12-24T12:49:12.995Z,11.79
2022-12-24T12:51:42.903Z,11.81
2022-12-24T12:54:22.347Z,11.82
2022-12-24T12:56:50.547Z,11.82
2022-12-24T12:59:41.526Z,11.84
2022-12-24T13:02:18.549Z,11.88
2022-12-24T13:04:51.775Z,11.82
2022-12-24T13:07:21.280Z,11.83
2022-12-24T13:10:35.870Z,11.92
2022-12-24T13:13:27.329Z,11.94
2022-12-24T13:16:14.447Z,11.94
2022-12-24T13:18:59.801Z,11.98
2022-12-24T13:21:28.507Z,11.98
2022-12-24T13:24:28.301Z,11.99
2022-12-24T13:27:23.967Z,11.99
2022-12-24T13:30:02.159Z,12.03
2022-12-24T13:32:34.221Z,12.00
2022-12-24T13:35:03.153Z,12.04
2022-12-24T13:37:34.339Z,12.01
2022-12-24T13:40:04.117Z,12.02
2022-12-24T13:42:59.252Z,12.03
2022-12-24T13:45:29.197Z,12.03
2022-12-24T13:48:14.483Z,12.01
2022-12-24T13:50:44.245Z,12.03
2022-12-24T13:53:33.651Z,12.03
2022-12-24T13:56:27.127Z,12.01
2022-12-24T13:59:08.917Z,12.04
2022-12-24T14:01:37.163Z,12.02
2022-12-24T14:04:04.421Z,12.02
2022-12-24T14:06:35.986Z,12.01
2022-12-24T14:09:10.127Z,12.04
2022-12-24T14:11:58.938Z,12.01
2022-12-24T14:14:29.943Z,12.05
2022-12-24T14:16:58.530Z,12.04
2022-12-24T14:19:32.357Z,12.14
2022-12-24T14:22:14.933Z,12.18
2022-12-24T14:24:43.061Z,12.24
2022-12-24T14:27:17.162Z,12.21
2022-12-24T14:29:52.790Z,12.21
2022-12-24T14:32:19.525Z,12.17
2022-12-24T14:34:46.735Z,12.13
2022-12-24T14:37:13.597Z,12.14
2022-12-24T14:39:46.661Z,12.14
2022-12-24T14:42:39.164Z,12.08
2022-12-24T14:45:47.739Z,12.09
2022-12-24T14:48:37.667Z,12.08
2022-12-24T14:51:28.021Z,12.07
2022-12-24T14:54:28.814Z,12.10
2022-12-24T14:57:11.387Z,12.09
2022-12-24T14:59:43.938Z,12.01
2022-12-24T15:02:43.536Z,12.03
2022-12-24T15:05:21.459Z,12.04
2022-12-24T15:08:18.865Z,12.01
2022-12-24T15:10:48.281Z,12.01
2022-12-24T15:13:21.536Z,12.00
2022-12-24T15:15:52.507Z,11.97
2022-12-24T15:18:22.527Z,11.95
2022-12-24T15:20:51.213Z,11.91
2022-12-24T15:23:19.855Z,11.91
2022-12-24T15:25:46.709Z,11.88
2022-12-24T15:34:05.415Z,11.80
2022-12-24T15:36:35.675Z,11.77
2022-12-24T15:39:07.147Z,11.73
2022-12-24T15:41:59.627Z,11.72
2022-12-24T15:44:27.360Z,11.72
2022-12-24T15:47:00.991Z,11.69
2022-12-24T15:49:31.401Z,11.68
2022-12-24T15:52:06.529Z,11.68
2022-12-24T15:54:33.877Z,11.65
2022-12-24T15:57:00.904Z,11.63
2022-12-24T15:59:28.820Z,11.63
2022-12-24T16:01:55.905Z,11.63
2022-12-24T16:04:27.493Z,11.64
2022-12-24T16:07:02.085Z,11.61
2022-12-24T16:09:37.161Z,11.59
2022-12-24T16:12:04.304Z,11.53
2022-12-24T16:14:31.299Z,11.51
2022-12-24T16:16:58.733Z,11.51
2022-12-24T16:19:26.641Z,11.49
2022-12-24T16:21:54.509Z,11.47
2022-12-24T16:24:25.181Z,11.46
2022-12-24T16:34:29.709Z,11.35
2022-12-24T16:36:56.951Z,11.36
2022-12-24T16:39:31.549Z,11.35
2022-12-24T16:42:18.792Z,11.35
2022-12-24T16:44:45.767Z,11.37
2022-12-24T16:47:15.595Z,11.32
2022-12-24T16:49:42.404Z,11.33
2022-12-24T16:52:16.352Z,11.33
2022-12-24T16:54:43.132Z,11.32
2022-12-24T16:57:10.601Z,11.29
2022-12-24T16:59:37.534Z,11.31
2022-12-24T17:02:09.233Z,11.29
2022-12-24T17:04:39.724Z,11.28
2022-12-24T17:07:07.243Z,11.32
2022-12-24T17:09:33.985Z,11.30
2022-12-24T17:12:01.016Z,11.28
2022-12-24T17:14:27.736Z,11.29
2022-12-24T17:16:54.840Z,11.27
2022-12-24T17:19:21.559Z,11.29
2022-12-24T17:21:48.592Z,11.27
2022-12-24T17:24:15.478Z,11.26
2022-12-24T17:26:43.653Z,11.27
2022-12-24T17:29:10.439Z,11.24
2022-12-24T17:31:40.850Z,11.24
2022-12-24T17:34:07.660Z,11.24
2022-12-24T17:36:34.747Z,11.22
2022-12-24T17:39:01.536Z,11.22
2022-12-24T17:41:28.597Z,11.20
2022-12-24T17:43:55.300Z,11.21
2022-12-24T17:46:23.007Z,11.19
2022-12-24T17:48:50.840Z,11.20
2022-12-24T17:51:20.303Z,11.18
2022-12-24T17:53:47.205Z,11.18
2022-12-24T17:56:15.445Z,11.18
2022-12-24T17:58:43.451Z,11.16
2022-12-24T18:01:20.523Z,11.14
2022-12-24T18:03:48.271Z,11.13
2022-12-24T18:06:15.699Z,11.11
2022-12-24T18:08:43.079Z,11.06
2022-12-24T18:11:32.720Z,11.05
2022-12-24T18:14:01.067Z,11.01
2022-12-24T18:16:34.014Z,11.01
2022-12-24T18:19:01.888Z,11.02
2022-12-24T18:21:30.063Z,11.03
2022-12-24T18:23:56.955Z,11.03
2022-12-24T18:26:28.278Z,11.01
2022-12-24T18:28:56.049Z,11.02
2022-12-24T18:31:24.001Z,11.00
2022-12-24T18:33:51.209Z,10.98
2022-12-24T18:36:18.437Z,10.97
2022-12-24T18:38:45.292Z,10.93
2022-12-24T18:41:20.210Z,10.89
2022-12-24T18:43:47.142Z,10.89
2022-12-24T18:46:25.334Z,10.85
2022-12-24T18:48:52.392Z,10.86
2022-12-24T18:51:22.101Z,10.84
2022-12-24T18:53:49.323Z,10.85
2022-12-24T18:56:18.489Z,10.87
2022-12-24T18:58:45.306Z,10.84
2022-12-24T19:01:20.228Z,10.81
2022-12-24T19:03:47.376Z,10.82
2022-12-24T19:06:14.471Z,10.81
2022-12-24T19:08:58.898Z,10.84
2022-12-24T19:11:28.388Z,10.83
2022-12-24T19:13:55.354Z,10.82
2022-12-24T19:16:22.545Z,10.81
2022-12-24T19:18:49.860Z,10.81
2022-12-24T19:21:17.533Z,10.77
2022-12-24T19:23:44.975Z,10.81
2022-12-24T19:26:12.635Z,10.82
2022-12-24T19:28:39.453Z,10.81
2022-12-24T19:31:09.421Z,10.81
2022-12-24T19:33:42.698Z,10.81
2022-12-24T19:36:12.712Z,10.82
2022-12-24T19:38:39.614Z,10.86
2022-12-24T19:41:13.299Z,10.81
2022-12-24T19:43:41.339Z,10.83
2022-12-24T19:46:09.501Z,10.84
2022-12-24T19:48:36.557Z,10.83
2022-12-24T19:51:06.567Z,10.82
2022-12-24T19:53:33.613Z,10.85
2022-12-24T19:56:00.689Z,10.83
2022-12-24T19:58:27.849Z,10.85
2022-12-24T20:00:55.049Z,10.84
2022-12-24T20:03:21.990Z,10.81
2022-12-24T20:05:49.196Z,10.79
2022-12-24T20:08:15.981Z,10.77
2022-12-24T20:10:43.650Z,10.79
2022-12-24T20:13:10.685Z,10.82
2022-12-24T20:15:39.566Z,10.79
2022-12-24T20:18:06.629Z,10.76
2022-12-24T20:20:33.900Z,10.77
2022-12-24T20:23:00.797Z,10.77
2022-12-24T20:25:28.007Z,10.79
2022-12-24T20:27:54.812Z,10.76
2022-12-24T20:30:21.893Z,10.75
2022-12-24T20:32:48.734Z,10.75
2022-12-24T20:35:15.895Z,10.73
2022-12-24T20:37:46.178Z,10.74
2022-12-24T20:40:13.545Z,10.75
2022-12-24T20:42:41.288Z,10.76
2022-12-24T20:45:08.597Z,10.75
2022-12-24T20:47:35.377Z,10.77
2022-12-24T20:50:02.444Z,10.77
2022-12-24T20:52:29.429Z,10.74
2022-12-24T20:54:56.476Z,10.75
2022-12-24T20:57:26.824Z,10.75
2022-12-24T20:59:55.958Z,10.78
2022-12-24T21:02:22.796Z,10.75
2022-12-24T21:04:50.192Z,10.73
2022-12-24T21:07:17.312Z,10.77
2022-12-24T21:09:44.404Z,10.76
2022-12-24T21:12:30.390Z,10.75
2022-12-24T21:14:57.544Z,10.77
2022-12-24T21:17:24.392Z,10.79
2022-12-24T21:19:51.828Z,10.79
2022-12-24T21:22:18.537Z,10.77
2022-12-24T21:24:45.539Z,10.73
2022-12-24T21:27:12.366Z,10.73
2022-12-24T21:29:39.393Z,10.72
2022-12-24T21:32:06.143Z,10.72
2022-12-24T21:34:33.211Z,10.75
2022-12-24T21:36:59.984Z,10.75
2022-12-24T21:39:27.080Z,10.76
2022-12-24T21:41:53.841Z,10.76
2022-12-24T21:44:20.881Z,10.76
2022-12-24T21:46:47.656Z,10.76
2022-12-24T21:49:33.294Z,10.76
2022-12-24T21:52:00.113Z,10.76
2022-12-24T21:54:28.582Z,10.77
2022-12-24T21:57:32.431Z,10.76
2022-12-24T22:00:18.062Z,10.76
2022-12-24T22:02:45.287Z,10.72
2022-12-24T22:05:12.625Z,10.75
2022-12-24T22:07:58.058Z,10.76
2022-12-24T22:10:43.706Z,10.74
2022-12-24T22:13:10.471Z,10.74
2022-12-24T22:15:46.089Z,10.73
2022-12-24T22:18:12.942Z,10.72
2022-12-24T22:20:40.140Z,10.72
2022-12-24T22:23:53.206Z,10.71
2022-12-24T22:26:27.377Z,10.71
2022-12-24T22:28:54.347Z,10.73
2022-12-24T22:31:29.632Z,10.72
2022-12-24T22:33:58.219Z,10.71
2022-12-24T22:36:26.830Z,10.69
2022-12-24T22:39:10.388Z,10.65
2022-12-24T22:41:44.933Z,10.68
2022-12-24T22:44:32.760Z,10.67
2022-12-24T22:47:01.542Z,10.69
2022-12-24T22:49:34.344Z,10.66
2022-12-24T22:52:12.302Z,10.66
2022-12-24T22:54:39.902Z,10.69
2022-12-24T22:57:08.095Z,10.70
2022-12-24T22:59:34.850Z,10.69
2022-12-24T23:02:04.325Z,10.69
2022-12-24T23:04:37.854Z,10.68
2022-12-24T23:07:05.921Z,10.71
2022-12-24T23:09:32.896Z,10.68
2022-12-24T23:11:59.954Z,10.69
2022-12-24T23:14:45.457Z,10.67
2022-12-24T23:17:12.580Z,10.64
2022-12-24T23:19:39.410Z,10.62
2022-12-24T23:22:06.546Z,10.63
2022-12-24T23:24:34.129Z,10.62
2022-12-24T23:27:01.647Z,10.64
2022-12-24T23:29:29.395Z,10.61
2022-12-24T23:31:56.458Z,10.60
2022-12-24T23:34:23.355Z,10.61
2022-12-24T23:36:50.421Z,10.58
2022-12-24T23:39:17.175Z,10.56
2022-12-24T23:41:44.253Z,10.58
2022-12-24T23:44:10.985Z,10.57
2022-12-24T23:46:38.106Z,10.57
2022-12-24T23:49:06.072Z,10.55
2022-12-24T23:51:33.107Z,10.53
2022-12-24T23:53:59.836Z,10.53
2022-12-24T23:56:26.921Z,10.52
2022-12-24T23:58:53.709Z,10.50
